Terminal Aerodrome Forecast
Issued by NWS

Home | Current Version | Previous Version | Text Only | Print | Product List | Glossary On
Versions: 1 2 3 4 5 6 7 8 9 10 11 12 13 14 15 16 17 18 19 20 21 22
000
FTUS42 KILM 230500
TAFCRE
TAF
KCRE 230528Z 2306/2406 21007KT P6SM SCT015 BKN030
     FM230800 00000KT 3SM BR BKN012
     FM231200 22006KT P6SM BKN016 OVC120
     FM231500 19007KT P6SM BKN040
      TEMPO 2316/2320 4SM TSRA BKN025CB
     FM232300 21007KT P6SM SCT030 BKN200=

USA.gov is the U.S. government's official web portal to all federal, state and local government web resources and services.